sensor_id;sensor_type;location;lat;lon;timestamp;temperature;humidity
11944;DHT22;6031;50.220;10.122;2023-03-23T00:00:00;13.10;85.90
11944;DHT22;6031;50.220;10.122;2023-03-23T00:02:30;13.10;99.90
11944;DHT22;6031;50.220;10.122;2023-03-23T00:05:01;13.20;94.20
11944;DHT22;6031;50.220;10.122;2023-03-23T00:07:28;13.20;97.10
11944;DHT22;6031;50.220;10.122;2023-03-23T00:09:55;13.10;99.90
11944;DHT22;6031;50.220;10.122;2023-03-23T00:12:26;13.30;26.60
11944;DHT22;6031;50.220;10.122;2023-03-23T00:15:07;13.50;1.00
11944;DHT22;6031;50.220;10.122;2023-03-23T00:17:34;13.50;1.00
11944;DHT22;6031;50.220;10.122;2023-03-23T00:20:00;13.50;1.00
11944;DHT22;6031;50.220;10.122;2023-03-23T00:22:28;13.50;1.00
11944;DHT22;6031;50.220;10.122;2023-03-23T00:24:54;13.50;4.60
11944;DHT22;6031;50.220;10.122;2023-03-23T00:27:21;13.50;1.00
11944;DHT22;6031;50.220;10.122;2023-03-23T00:29:48;13.60;1.00
11944;DHT22;6031;50.220;10.122;2023-03-23T00:32:19;13.60;1.00
11944;DHT22;6031;50.220;10.122;2023-03-23T00:34:46;13.50;9.40
11944;DHT22;6031;50.220;10.122;2023-03-23T00:37:13;13.50;30.50
11944;DHT22;6031;50.220;10.122;2023-03-23T00:39:41;13.40;41.30
11944;DHT22;6031;50.220;10.122;2023-03-23T00:42:09;13.40;70.60
11944;DHT22;6031;50.220;10.122;2023-03-23T00:44:35;13.40;91.40
11944;DHT22;6031;50.220;10.122;2023-03-23T00:47:01;13.30;99.90
11944;DHT22;6031;50.220;10.122;2023-03-23T00:49:28;13.30;99.90
11944;DHT22;6031;50.220;10.122;2023-03-23T00:51:56;13.40;99.90
11944;DHT22;6031;50.220;10.122;2023-03-23T00:54:22;13.40;99.90
11944;DHT22;6031;50.220;10.122;2023-03-23T00:56:49;13.50;99.90
11944;DHT22;6031;50.220;10.122;2023-03-23T00:59:15;13.50;99.90
11944;DHT22;6031;50.220;10.122;2023-03-23T01:01:41;13.50;99.90
11944;DHT22;6031;50.220;10.122;2023-03-23T01:04:07;13.60;99.90
11944;DHT22;6031;50.220;10.122;2023-03-23T01:06:35;13.70;81.80
11944;DHT22;6031;50.220;10.122;2023-03-23T01:09:04;13.70;98.80
11944;DHT22;6031;50.220;10.122;2023-03-23T01:11:31;13.70;95.70
11944;DHT22;6031;50.220;10.122;2023-03-23T01:13:57;13.70;91.10
11944;DHT22;6031;50.220;10.122;2023-03-23T01:16:23;13.70;99.90
11944;DHT22;6031;50.220;10.122;2023-03-23T01:18:48;13.70;98.40
11944;DHT22;6031;50.220;10.122;2023-03-23T01:21:18;13.70;99.90
11944;DHT22;6031;50.220;10.122;2023-03-23T01:23:44;13.80;98.60
11944;DHT22;6031;50.220;10.122;2023-03-23T01:26:13;13.70;99.90
11944;DHT22;6031;50.220;10.122;2023-03-23T01:28:39;13.60;99.90
11944;DHT22;6031;50.220;10.122;2023-03-23T01:31:09;13.60;99.90
11944;DHT22;6031;50.220;10.122;2023-03-23T01:33:38;13.50;99.90
11944;DHT22;6031;50.220;10.122;2023-03-23T01:36:06;13.60;99.90
11944;DHT22;6031;50.220;10.122;2023-03-23T01:38:32;13.50;99.90
11944;DHT22;6031;50.220;10.122;2023-03-23T01:40:58;13.50;99.90
11944;DHT22;6031;50.220;10.122;2023-03-23T01:43:24;13.40;99.90
11944;DHT22;6031;50.220;10.122;2023-03-23T01:45:50;13.40;99.90
11944;DHT22;6031;50.220;10.122;2023-03-23T01:48:20;13.40;99.90
11944;DHT22;6031;50.220;10.122;2023-03-23T01:53:20;13.40;99.90
11944;DHT22;6031;50.220;10.122;2023-03-23T01:55:47;13.30;99.90
11944;DHT22;6031;50.220;10.122;2023-03-23T01:58:18;13.20;99.90
11944;DHT22;6031;50.220;10.122;2023-03-23T02:00:46;13.20;99.90
11944;DHT22;6031;50.220;10.122;2023-03-23T02:03:13;13.20;99.90
11944;DHT22;6031;50.220;10.122;2023-03-23T02:05:41;13.00;1.00
11944;DHT22;6031;50.220;10.122;2023-03-23T02:08:08;13.00;1.00
11944;DHT22;6031;50.220;10.122;2023-03-23T02:10:36;13.00;1.00
11944;DHT22;6031;50.220;10.122;2023-03-23T02:13:03;13.00;1.00
11944;DHT22;6031;50.220;10.122;2023-03-23T02:15:41;13.00;1.00
11944;DHT22;6031;50.220;10.122;2023-03-23T02:21:02;13.00;1.00
11944;DHT22;6031;50.220;10.122;2023-03-23T02:31:56;13.00;1.00
11944;DHT22;6031;50.220;10.122;2023-03-23T02:37:07;13.00;1.00
11944;DHT22;6031;50.220;10.122;2023-03-23T02:42:07;13.00;1.00
11944;DHT22;6031;50.220;10.122;2023-03-23T02:44:35;13.00;1.00
11944;DHT22;6031;50.220;10.122;2023-03-23T02:47:05;13.10;1.00
11944;DHT22;6031;50.220;10.122;2023-03-23T02:49:32;13.00;1.00
11944;DHT22;6031;50.220;10.122;2023-03-23T02:52:05;13.10;1.00
11944;DHT22;6031;50.220;10.122;2023-03-23T02:54:32;13.10;1.00
11944;DHT22;6031;50.220;10.122;2023-03-23T02:56:58;13.00;1.00
11944;DHT22;6031;50.220;10.122;2023-03-23T02:59:24;13.00;1.00
11944;DHT22;6031;50.220;10.122;2023-03-23T03:02:07;12.90;1.00
11944;DHT22;6031;50.220;10.122;2023-03-23T03:04:36;12.90;1.00
11944;DHT22;6031;50.220;10.122;2023-03-23T03:12:23;12.70;1.00
11944;DHT22;6031;50.220;10.122;2023-03-23T03:15:06;12.80;1.00
11944;DHT22;6031;50.220;10.122;2023-03-23T03:17:38;12.70;1.00
11944;DHT22;6031;50.220;10.122;2023-03-23T03:20:09;12.70;1.00
11944;DHT22;6031;50.220;10.122;2023-03-23T03:22:38;12.70;1.00
11944;DHT22;6031;50.220;10.122;2023-03-23T03:25:04;12.70;1.00
11944;DHT22;6031;50.220;10.122;2023-03-23T03:27:31;12.70;1.00
11944;DHT22;6031;50.220;10.122;2023-03-23T03:29:59;12.70;1.00
11944;DHT22;6031;50.220;10.122;2023-03-23T03:32:38;12.70;1.00
11944;DHT22;6031;50.220;10.122;2023-03-23T03:35:06;12.60;1.00
11944;DHT22;6031;50.220;10.122;2023-03-23T03:37:36;12.60;1.00
11944;DHT22;6031;50.220;10.122;2023-03-23T03:40:04;12.60;1.00
11944;DHT22;6031;50.220;10.122;2023-03-23T03:42:36;12.60;1.00
11944;DHT22;6031;50.220;10.122;2023-03-23T03:45:02;12.60;1.00
11944;DHT22;6031;50.220;10.122;2023-03-23T03:47:28;12.60;1.00
11944;DHT22;6031;50.220;10.122;2023-03-23T03:49:53;12.60;1.00
11944;DHT22;6031;50.220;10.122;2023-03-23T03:52:19;12.60;1.00
11944;DHT22;6031;50.220;10.122;2023-03-23T03:54:44;12.60;1.00
11944;DHT22;6031;50.220;10.122;2023-03-23T03:57:10;12.60;1.00
11944;DHT22;6031;50.220;10.122;2023-03-23T03:59:37;12.60;1.00
11944;DHT22;6031;50.220;10.122;2023-03-23T04:02:02;12.50;1.00
11944;DHT22;6031;50.220;10.122;2023-03-23T04:04:29;12.50;1.00
11944;DHT22;6031;50.220;10.122;2023-03-23T04:06:54;12.50;1.00
11944;DHT22;6031;50.220;10.122;2023-03-23T04:09:20;12.40;1.00
11944;DHT22;6031;50.220;10.122;2023-03-23T04:11:46;12.40;1.00
11944;DHT22;6031;50.220;10.122;2023-03-23T04:14:12;12.40;1.00
11944;DHT22;6031;50.220;10.122;2023-03-23T04:16:37;12.40;1.00
11944;DHT22;6031;50.220;10.122;2023-03-23T04:19:03;12.40;1.00
11944;DHT22;6031;50.220;10.122;2023-03-23T04:21:29;12.30;1.00
11944;DHT22;6031;50.220;10.122;2023-03-23T04:23:55;12.40;1.00
11944;DHT22;6031;50.220;10.122;2023-03-23T04:26:25;12.30;1.00
11944;DHT22;6031;50.220;10.122;2023-03-23T04:28:51;12.30;1.00
11944;DHT22;6031;50.220;10.122;2023-03-23T04:31:17;12.20;1.00
11944;DHT22;6031;50.220;10.122;2023-03-23T04:33:43;12.20;1.00
11944;DHT22;6031;50.220;10.122;2023-03-23T04:36:08;12.20;1.00
11944;DHT22;6031;50.220;10.122;2023-03-23T04:38:34;12.10;18.30
11944;DHT22;6031;50.220;10.122;2023-03-23T04:41:00;12.00;80.50
11944;DHT22;6031;50.220;10.122;2023-03-23T04:43:28;11.90;99.90
11944;DHT22;6031;50.220;10.122;2023-03-23T04:45:58;12.00;99.90
11944;DHT22;6031;50.220;10.122;2023-03-23T04:48:27;12.00;99.90
11944;DHT22;6031;50.220;10.122;2023-03-23T04:50:53;12.00;99.90
11944;DHT22;6031;50.220;10.122;2023-03-23T04:53:19;11.90;99.90
11944;DHT22;6031;50.220;10.122;2023-03-23T04:55:46;11.90;99.90
11944;DHT22;6031;50.220;10.122;2023-03-23T04:58:12;11.80;1.00
11944;DHT22;6031;50.220;10.122;2023-03-23T05:00:40;11.80;1.00
11944;DHT22;6031;50.220;10.122;2023-03-23T05:03:05;11.70;1.00
11944;DHT22;6031;50.220;10.122;2023-03-23T05:05:33;11.80;1.00
11944;DHT22;6031;50.220;10.122;2023-03-23T05:08:00;11.80;1.00
11944;DHT22;6031;50.220;10.122;2023-03-23T05:10:25;11.70;87.40
11944;DHT22;6031;50.220;10.122;2023-03-23T05:12:53;11.70;99.90
11944;DHT22;6031;50.220;10.122;2023-03-23T05:15:18;11.70;99.90
11944;DHT22;6031;50.220;10.122;2023-03-23T05:17:44;11.60;1.00
11944;DHT22;6031;50.220;10.122;2023-03-23T05:20:14;11.60;99.90
11944;DHT22;6031;50.220;10.122;2023-03-23T05:22:44;11.50;99.90
11944;DHT22;6031;50.220;10.122;2023-03-23T05:25:09;11.50;1.00
11944;DHT22;6031;50.220;10.122;2023-03-23T05:27:36;11.50;91.20
11944;DHT22;6031;50.220;10.122;2023-03-23T05:30:03;11.50;99.90
11944;DHT22;6031;50.220;10.122;2023-03-23T05:32:29;11.40;99.90
11944;DHT22;6031;50.220;10.122;2023-03-23T05:34:56;11.40;1.00
11944;DHT22;6031;50.220;10.122;2023-03-23T05:37:23;11.40;1.00
11944;DHT22;6031;50.220;10.122;2023-03-23T05:39:49;11.30;73.20
11944;DHT22;6031;50.220;10.122;2023-03-23T05:42:22;11.30;9.40
11944;DHT22;6031;50.220;10.122;2023-03-23T05:44:49;11.30;1.00
11944;DHT22;6031;50.220;10.122;2023-03-23T05:47:14;11.20;1.00
11944;DHT22;6031;50.220;10.122;2023-03-23T05:49:40;11.20;1.00
11944;DHT22;6031;50.220;10.122;2023-03-23T05:52:06;11.20;99.90
11944;DHT22;6031;50.220;10.122;2023-03-23T05:54:32;11.10;1.00
11944;DHT22;6031;50.220;10.122;2023-03-23T05:56:59;11.10;1.00
11944;DHT22;6031;50.220;10.122;2023-03-23T05:59:25;11.00;1.00
11944;DHT22;6031;50.220;10.122;2023-03-23T06:01:51;11.00;1.00
11944;DHT22;6031;50.220;10.122;2023-03-23T06:04:19;10.90;1.00
11944;DHT22;6031;50.220;10.122;2023-03-23T06:06:44;10.90;1.00
11944;DHT22;6031;50.220;10.122;2023-03-23T06:09:10;10.90;1.00
11944;DHT22;6031;50.220;10.122;2023-03-23T06:11:36;10.80;1.00
11944;DHT22;6031;50.220;10.122;2023-03-23T06:14:02;10.80;99.90
11944;DHT22;6031;50.220;10.122;2023-03-23T06:16:28;10.90;99.90
11944;DHT22;6031;50.220;10.122;2023-03-23T06:18:54;10.90;1.00
11944;DHT22;6031;50.220;10.122;2023-03-23T06:21:19;10.80;1.00
11944;DHT22;6031;50.220;10.122;2023-03-23T06:23:47;10.80;99.90
11944;DHT22;6031;50.220;10.122;2023-03-23T06:26:14;10.90;1.00
11944;DHT22;6031;50.220;10.122;2023-03-23T06:28:42;11.10;10.00
11944;DHT22;6031;50.220;10.122;2023-03-23T06:31:08;11.30;99.90
11944;DHT22;6031;50.220;10.122;2023-03-23T06:33:34;11.30;1.00
11944;DHT22;6031;50.220;10.122;2023-03-23T06:36:01;11.40;1.00
11944;DHT22;6031;50.220;10.122;2023-03-23T06:38:27;11.50;1.00
11944;DHT22;6031;50.220;10.122;2023-03-23T06:40:53;11.60;1.00
11944;DHT22;6031;50.220;10.122;2023-03-23T06:43:19;11.70;1.00
11944;DHT22;6031;50.220;10.122;2023-03-23T06:45:45;11.70;99.90
11944;DHT22;6031;50.220;10.122;2023-03-23T06:48:11;11.80;99.90
11944;DHT22;6031;50.220;10.122;2023-03-23T06:50:37;12.00;1.00
11944;DHT22;6031;50.220;10.122;2023-03-23T06:53:03;12.00;28.90
11944;DHT22;6031;50.220;10.122;2023-03-23T06:55:28;12.10;1.00
11944;DHT22;6031;50.220;10.122;2023-03-23T06:57:54;12.20;1.00
11944;DHT22;6031;50.220;10.122;2023-03-23T07:00:19;12.20;1.00
11944;DHT22;6031;50.220;10.122;2023-03-23T07:02:45;12.20;1.00
11944;DHT22;6031;50.220;10.122;2023-03-23T07:05:12;12.20;1.00
11944;DHT22;6031;50.220;10.122;2023-03-23T07:07:39;12.10;99.90
11944;DHT22;6031;50.220;10.122;2023-03-23T07:10:07;12.10;1.00
11944;DHT22;6031;50.220;10.122;2023-03-23T07:12:34;12.00;1.00
11944;DHT22;6031;50.220;10.122;2023-03-23T07:15:04;12.00;1.00
11944;DHT22;6031;50.220;10.122;2023-03-23T07:17:30;12.00;1.00
11944;DHT22;6031;50.220;10.122;2023-03-23T07:19:56;12.10;1.00
11944;DHT22;6031;50.220;10.122;2023-03-23T07:22:22;12.10;99.90
11944;DHT22;6031;50.220;10.122;2023-03-23T07:24:47;12.20;99.90
11944;DHT22;6031;50.220;10.122;2023-03-23T07:27:13;12.20;24.00
11944;DHT22;6031;50.220;10.122;2023-03-23T07:29:39;12.10;1.00
11944;DHT22;6031;50.220;10.122;2023-03-23T07:32:05;12.00;99.90
11944;DHT22;6031;50.220;10.122;2023-03-23T07:34:32;12.00;1.00
11944;DHT22;6031;50.220;10.122;2023-03-23T07:36:58;12.10;1.00
11944;DHT22;6031;50.220;10.122;2023-03-23T07:39:24;12.20;1.00
11944;DHT22;6031;50.220;10.122;2023-03-23T07:41:50;12.30;99.90
11944;DHT22;6031;50.220;10.122;2023-03-23T07:44:16;12.40;1.00
11944;DHT22;6031;50.220;10.122;2023-03-23T07:46:42;12.40;37.70
11944;DHT22;6031;50.220;10.122;2023-03-23T07:49:08;12.50;51.50
11944;DHT22;6031;50.220;10.122;2023-03-23T07:51:34;12.50;1.00
11944;DHT22;6031;50.220;10.122;2023-03-23T07:54:01;12.50;56.40
11944;DHT22;6031;50.220;10.122;2023-03-23T07:56:30;12.40;99.90
11944;DHT22;6031;50.220;10.122;2023-03-23T07:58:56;12.30;99.90
11944;DHT22;6031;50.220;10.122;2023-03-23T08:01:22;12.20;1.00
11944;DHT22;6031;50.220;10.122;2023-03-23T08:03:49;12.10;99.90
11944;DHT22;6031;50.220;10.122;2023-03-23T08:06:15;12.10;1.00
11944;DHT22;6031;50.220;10.122;2023-03-23T08:08:41;12.00;1.00
11944;DHT22;6031;50.220;10.122;2023-03-23T08:11:07;12.10;1.00
11944;DHT22;6031;50.220;10.122;2023-03-23T08:13:32;12.20;99.90
11944;DHT22;6031;50.220;10.122;2023-03-23T08:16:01;12.20;1.00
11944;DHT22;6031;50.220;10.122;2023-03-23T08:18:30;12.20;99.90
11944;DHT22;6031;50.220;10.122;2023-03-23T08:20:57;12.20;1.00
11944;DHT22;6031;50.220;10.122;2023-03-23T08:23:22;12.20;1.00
11944;DHT22;6031;50.220;10.122;2023-03-23T08:25:48;12.10;99.90
11944;DHT22;6031;50.220;10.122;2023-03-23T08:28:14;12.00;1.00
11944;DHT22;6031;50.220;10.122;2023-03-23T08:30:41;12.00;1.00
11944;DHT22;6031;50.220;10.122;2023-03-23T08:33:07;11.90;1.00
11944;DHT22;6031;50.220;10.122;2023-03-23T08:35:35;11.90;1.00
11944;DHT22;6031;50.220;10.122;2023-03-23T08:38:02;11.90;1.00
11944;DHT22;6031;50.220;10.122;2023-03-23T08:40:28;12.00;1.00
11944;DHT22;6031;50.220;10.122;2023-03-23T08:42:55;12.00;1.00
11944;DHT22;6031;50.220;10.122;2023-03-23T08:45:23;12.00;1.00
11944;DHT22;6031;50.220;10.122;2023-03-23T08:47:49;12.10;1.00
11944;DHT22;6031;50.220;10.122;2023-03-23T08:50:25;12.20;1.00
11944;DHT22;6031;50.220;10.122;2023-03-23T08:52:51;12.20;99.90
11944;DHT22;6031;50.220;10.122;2023-03-23T08:55:19;12.30;29.00
11944;DHT22;6031;50.220;10.122;2023-03-23T08:57:44;12.40;1.00
11944;DHT22;6031;50.220;10.122;2023-03-23T09:00:13;12.60;1.00
11944;DHT22;6031;50.220;10.122;2023-03-23T09:02:47;12.70;99.90
11944;DHT22;6031;50.220;10.122;2023-03-23T09:05:13;12.70;99.90
11944;DHT22;6031;50.220;10.122;2023-03-23T09:07:41;12.70;1.00
11944;DHT22;6031;50.220;10.122;2023-03-23T09:10:08;12.70;1.00
11944;DHT22;6031;50.220;10.122;2023-03-23T09:12:34;12.90;1.00
11944;DHT22;6031;50.220;10.122;2023-03-23T09:15:00;13.00;1.00
11944;DHT22;6031;50.220;10.122;2023-03-23T09:17:30;12.90;97.10
11944;DHT22;6031;50.220;10.122;2023-03-23T09:19:56;12.70;99.90
11944;DHT22;6031;50.220;10.122;2023-03-23T09:22:22;12.60;99.90
11944;DHT22;6031;50.220;10.122;2023-03-23T09:24:49;12.60;99.90
11944;DHT22;6031;50.220;10.122;2023-03-23T09:27:15;12.60;1.00
11944;DHT22;6031;50.220;10.122;2023-03-23T09:29:41;12.70;2.30
11944;DHT22;6031;50.220;10.122;2023-03-23T09:32:07;12.70;99.90
11944;DHT22;6031;50.220;10.122;2023-03-23T09:34:33;12.60;54.70
11944;DHT22;6031;50.220;10.122;2023-03-23T09:37:01;12.70;99.90
11944;DHT22;6031;50.220;10.122;2023-03-23T09:39:29;12.70;1.00
11944;DHT22;6031;50.220;10.122;2023-03-23T09:42:20;12.50;1.00
11944;DHT22;6031;50.220;10.122;2023-03-23T09:45:04;12.50;1.00
11944;DHT22;6031;50.220;10.122;2023-03-23T09:48:10;12.40;1.00
11944;DHT22;6031;50.220;10.122;2023-03-23T09:50:41;12.30;99.90
11944;DHT22;6031;50.220;10.122;2023-03-23T09:53:24;12.40;99.90
11944;DHT22;6031;50.220;10.122;2023-03-23T09:55:52;12.40;1.00
11944;DHT22;6031;50.220;10.122;2023-03-23T09:58:33;12.70;99.90
11944;DHT22;6031;50.220;10.122;2023-03-23T10:04:18;13.10;1.00
11944;DHT22;6031;50.220;10.122;2023-03-23T10:06:45;13.50;1.00
11944;DHT22;6031;50.220;10.122;2023-03-23T10:09:15;13.70;1.00
11944;DHT22;6031;50.220;10.122;2023-03-23T10:25:36;13.70;1.00
11944;DHT22;6031;50.220;10.122;2023-03-23T10:28:11;13.60;1.00
11944;DHT22;6031;50.220;10.122;2023-03-23T10:30:41;13.70;99.90
11944;DHT22;6031;50.220;10.122;2023-03-23T10:38:34;14.40;1.00
11944;DHT22;6031;50.220;10.122;2023-03-23T10:41:05;14.80;99.90
11944;DHT22;6031;50.220;10.122;2023-03-23T10:43:34;15.10;1.00
11944;DHT22;6031;50.220;10.122;2023-03-23T10:46:05;16.10;47.90
11944;DHT22;6031;50.220;10.122;2023-03-23T10:48:37;17.40;1.00
11944;DHT22;6031;50.220;10.122;2023-03-23T10:51:06;17.70;1.00
11944;DHT22;6031;50.220;10.122;2023-03-23T10:53:45;18.10;99.90
11944;DHT22;6031;50.220;10.122;2023-03-23T10:56:27;18.00;1.00
11944;DHT22;6031;50.220;10.122;2023-03-23T10:58:53;18.70;99.90
11944;DHT22;6031;50.220;10.122;2023-03-23T11:01:31;17.60;1.00
11944;DHT22;6031;50.220;10.122;2023-03-23T11:03:58;16.80;1.00
11944;DHT22;6031;50.220;10.122;2023-03-23T11:06:30;15.70;14.60
11944;DHT22;6031;50.220;10.122;2023-03-23T11:09:03;15.60;1.00
11944;DHT22;6031;50.220;10.122;2023-03-23T11:11:38;15.30;92.10
11944;DHT22;6031;50.220;10.122;2023-03-23T11:14:24;15.20;27.20
11944;DHT22;6031;50.220;10.122;2023-03-23T11:16:52;15.30;28.50
11944;DHT22;6031;50.220;10.122;2023-03-23T11:19:25;15.70;99.90
11944;DHT22;6031;50.220;10.122;2023-03-23T11:21:54;15.40;99.90
11944;DHT22;6031;50.220;10.122;2023-03-23T11:24:25;15.30;1.00
11944;DHT22;6031;50.220;10.122;2023-03-23T11:26:52;15.30;1.00
11944;DHT22;6031;50.220;10.122;2023-03-23T11:29:26;15.00;99.90
11944;DHT22;6031;50.220;10.122;2023-03-23T11:32:05;14.80;99.90
11944;DHT22;6031;50.220;10.122;2023-03-23T11:34:33;14.60;99.90
11944;DHT22;6031;50.220;10.122;2023-03-23T11:38:02;14.10;1.00
11944;DHT22;6031;50.220;10.122;2023-03-23T11:47:50;13.70;1.00
11944;DHT22;6031;50.220;10.122;2023-03-23T11:50:26;13.80;38.90
11944;DHT22;6031;50.220;10.122;2023-03-23T11:55:55;14.30;99.90
11944;DHT22;6031;50.220;10.122;2023-03-23T11:58:21;14.70;38.20
11944;DHT22;6031;50.220;10.122;2023-03-23T12:03:51;14.90;99.90
11944;DHT22;6031;50.220;10.122;2023-03-23T12:06:13;14.70;99.90
11944;DHT22;6031;50.220;10.122;2023-03-23T12:09:09;14.70;1.00
11944;DHT22;6031;50.220;10.122;2023-03-23T12:12:12;14.80;99.90
11944;DHT22;6031;50.220;10.122;2023-03-23T12:23:25;14.60;1.00
11944;DHT22;6031;50.220;10.122;2023-03-23T12:26:19;14.40;99.90
11944;DHT22;6031;50.220;10.122;2023-03-23T12:29:12;14.30;1.00
11944;DHT22;6031;50.220;10.122;2023-03-23T12:34:27;14.20;1.00
11944;DHT22;6031;50.220;10.122;2023-03-23T12:37:08;14.20;1.00
11944;DHT22;6031;50.220;10.122;2023-03-23T12:39:43;14.20;1.00
11944;DHT22;6031;50.220;10.122;2023-03-23T12:42:24;14.30;1.00
11944;DHT22;6031;50.220;10.122;2023-03-23T12:45:11;14.40;1.00
11944;DHT22;6031;50.220;10.122;2023-03-23T12:47:48;14.60;1.00
11944;DHT22;6031;50.220;10.122;2023-03-23T12:50:18;14.90;99.90
11944;DHT22;6031;50.220;10.122;2023-03-23T12:53:02;14.90;13.40
11944;DHT22;6031;50.220;10.122;2023-03-23T12:55:40;14.90;78.70
11944;DHT22;6031;50.220;10.122;2023-03-23T12:58:12;15.10;99.90
11944;DHT22;6031;50.220;10.122;2023-03-23T13:03:48;15.50;1.00
11944;DHT22;6031;50.220;10.122;2023-03-23T13:09:15;15.00;1.00
11944;DHT22;6031;50.220;10.122;2023-03-23T13:11:43;15.30;1.00
11944;DHT22;6031;50.220;10.122;2023-03-23T13:16:54;15.20;1.00
11944;DHT22;6031;50.220;10.122;2023-03-23T13:22:06;15.20;1.00
11944;DHT22;6031;50.220;10.122;2023-03-23T13:24:38;15.00;1.00
11944;DHT22;6031;50.220;10.122;2023-03-23T13:27:06;14.80;1.00
11944;DHT22;6031;50.220;10.122;2023-03-23T13:29:33;14.50;1.00
11944;DHT22;6031;50.220;10.122;2023-03-23T13:32:11;14.20;99.90
11944;DHT22;6031;50.220;10.122;2023-03-23T13:34:38;14.00;99.90
11944;DHT22;6031;50.220;10.122;2023-03-23T13:37:10;13.90;99.90
11944;DHT22;6031;50.220;10.122;2023-03-23T13:42:52;13.70;99.90
11944;DHT22;6031;50.220;10.122;2023-03-23T13:45:24;13.60;1.00
11944;DHT22;6031;50.220;10.122;2023-03-23T13:48:18;13.60;1.00
11944;DHT22;6031;50.220;10.122;2023-03-23T13:50:50;13.40;1.00
11944;DHT22;6031;50.220;10.122;2023-03-23T13:53:46;13.40;1.00
11944;DHT22;6031;50.220;10.122;2023-03-23T13:56:32;13.40;1.00
11944;DHT22;6031;50.220;10.122;2023-03-23T13:59:16;13.50;1.00
11944;DHT22;6031;50.220;10.122;2023-03-23T14:01:42;13.60;1.00
11944;DHT22;6031;50.220;10.122;2023-03-23T14:04:16;13.60;1.00
11944;DHT22;6031;50.220;10.122;2023-03-23T14:06:44;13.60;1.00
11944;DHT22;6031;50.220;10.122;2023-03-23T14:09:25;13.50;1.00
11944;DHT22;6031;50.220;10.122;2023-03-23T14:11:57;13.60;13.30
11944;DHT22;6031;50.220;10.122;2023-03-23T14:14:39;13.70;1.00
11944;DHT22;6031;50.220;10.122;2023-03-23T14:17:17;13.70;1.00
11944;DHT22;6031;50.220;10.122;2023-03-23T14:19:50;13.80;1.00
11944;DHT22;6031;50.220;10.122;2023-03-23T14:22:26;13.90;1.00
11944;DHT22;6031;50.220;10.122;2023-03-23T14:25:08;14.00;1.00
11944;DHT22;6031;50.220;10.122;2023-03-23T14:27:35;14.10;1.00
11944;DHT22;6031;50.220;10.122;2023-03-23T14:30:06;14.20;1.00
11944;DHT22;6031;50.220;10.122;2023-03-23T14:32:33;14.20;1.00
11944;DHT22;6031;50.220;10.122;2023-03-23T14:35:04;14.40;1.00
11944;DHT22;6031;50.220;10.122;2023-03-23T14:37:31;14.30;1.00
11944;DHT22;6031;50.220;10.122;2023-03-23T14:39:57;14.40;1.00
11944;DHT22;6031;50.220;10.122;2023-03-23T14:42:29;14.40;1.00
11944;DHT22;6031;50.220;10.122;2023-03-23T14:44:56;14.50;1.00
11944;DHT22;6031;50.220;10.122;2023-03-23T14:47:25;14.40;1.00
11944;DHT22;6031;50.220;10.122;2023-03-23T14:49:54;14.70;99.90
11944;DHT22;6031;50.220;10.122;2023-03-23T14:52:22;14.90;99.90
11944;DHT22;6031;50.220;10.122;2023-03-23T14:54:48;15.20;99.90
11944;DHT22;6031;50.220;10.122;2023-03-23T14:57:26;15.20;99.90
11944;DHT22;6031;50.220;10.122;2023-03-23T14:59:52;15.20;99.90
11944;DHT22;6031;50.220;10.122;2023-03-23T15:02:37;15.10;99.90
11944;DHT22;6031;50.220;10.122;2023-03-23T15:05:16;15.10;99.90
11944;DHT22;6031;50.220;10.122;2023-03-23T15:07:45;15.00;99.90
11944;DHT22;6031;50.220;10.122;2023-03-23T15:10:20;15.00;99.90
11944;DHT22;6031;50.220;10.122;2023-03-23T15:12:48;14.70;99.90
11944;DHT22;6031;50.220;10.122;2023-03-23T15:15:25;14.60;99.90
11944;DHT22;6031;50.220;10.122;2023-03-23T15:17:51;14.50;1.00
11944;DHT22;6031;50.220;10.122;2023-03-23T15:20:29;14.50;1.00
11944;DHT22;6031;50.220;10.122;2023-03-23T15:22:56;14.50;1.00
11944;DHT22;6031;50.220;10.122;2023-03-23T15:27:55;14.50;1.00
11944;DHT22;6031;50.220;10.122;2023-03-23T15:32:59;14.50;99.90
11944;DHT22;6031;50.220;10.122;2023-03-23T15:35:26;14.50;99.90
11944;DHT22;6031;50.220;10.122;2023-03-23T15:40:21;14.40;99.90
11944;DHT22;6031;50.220;10.122;2023-03-23T15:42:48;14.30;99.90
11944;DHT22;6031;50.220;10.122;2023-03-23T15:45:18;14.30;99.90
11944;DHT22;6031;50.220;10.122;2023-03-23T15:47:47;14.30;99.90
11944;DHT22;6031;50.220;10.122;2023-03-23T15:52:53;14.30;99.90
11944;DHT22;6031;50.220;10.122;2023-03-23T15:55:27;14.30;99.90
11944;DHT22;6031;50.220;10.122;2023-03-23T15:57:56;14.30;99.90
11944;DHT22;6031;50.220;10.122;2023-03-23T16:00:24;14.30;99.90
11944;DHT22;6031;50.220;10.122;2023-03-23T16:03:03;14.20;99.90
11944;DHT22;6031;50.220;10.122;2023-03-23T16:05:29;14.30;99.90
11944;DHT22;6031;50.220;10.122;2023-03-23T16:07:55;14.20;99.90
11944;DHT22;6031;50.220;10.122;2023-03-23T16:10:22;14.20;99.90
11944;DHT22;6031;50.220;10.122;2023-03-23T16:12:48;14.10;99.90
11944;DHT22;6031;50.220;10.122;2023-03-23T16:15:14;14.10;99.90
11944;DHT22;6031;50.220;10.122;2023-03-23T16:17:40;14.10;1.00
11944;DHT22;6031;50.220;10.122;2023-03-23T16:20:15;14.00;1.00
11944;DHT22;6031;50.220;10.122;2023-03-23T16:22:40;14.10;1.00
11944;DHT22;6031;50.220;10.122;2023-03-23T16:25:07;14.00;1.00
11944;DHT22;6031;50.220;10.122;2023-03-23T16:27:32;13.90;1.00
11944;DHT22;6031;50.220;10.122;2023-03-23T16:29:58;13.90;1.00
11944;DHT22;6031;50.220;10.122;2023-03-23T16:32:25;13.90;1.00
11944;DHT22;6031;50.220;10.122;2023-03-23T16:34:51;13.90;1.00
11944;DHT22;6031;50.220;10.122;2023-03-23T16:37:16;13.80;1.00
11944;DHT22;6031;50.220;10.122;2023-03-23T16:39:42;13.70;48.80
11944;DHT22;6031;50.220;10.122;2023-03-23T16:42:08;13.60;99.90
11944;DHT22;6031;50.220;10.122;2023-03-23T16:44:33;13.60;99.90
11944;DHT22;6031;50.220;10.122;2023-03-23T16:46:59;13.70;1.00
11944;DHT22;6031;50.220;10.122;2023-03-23T16:49:24;13.70;7.20
11944;DHT22;6031;50.220;10.122;2023-03-23T16:51:50;13.60;93.70
11944;DHT22;6031;50.220;10.122;2023-03-23T16:54:16;13.60;44.80
11944;DHT22;6031;50.220;10.122;2023-03-23T16:56:41;13.60;99.90
11944;DHT22;6031;50.220;10.122;2023-03-23T16:59:13;13.60;99.90
11944;DHT22;6031;50.220;10.122;2023-03-23T17:01:39;13.50;99.90
11944;DHT22;6031;50.220;10.122;2023-03-23T17:04:05;13.50;99.90
11944;DHT22;6031;50.220;10.122;2023-03-23T17:06:31;13.50;99.90
11944;DHT22;6031;50.220;10.122;2023-03-23T17:08:56;13.50;99.90
11944;DHT22;6031;50.220;10.122;2023-03-23T17:11:22;13.50;99.90
11944;DHT22;6031;50.220;10.122;2023-03-23T17:13:48;13.40;1.00
11944;DHT22;6031;50.220;10.122;2023-03-23T17:16:13;13.40;1.00
11944;DHT22;6031;50.220;10.122;2023-03-23T17:18:39;13.30;1.00
11944;DHT22;6031;50.220;10.122;2023-03-23T17:21:04;13.20;99.90
11944;DHT22;6031;50.220;10.122;2023-03-23T17:23:31;13.10;1.00
11944;DHT22;6031;50.220;10.122;2023-03-23T17:25:56;13.00;1.00
11944;DHT22;6031;50.220;10.122;2023-03-23T17:28:22;12.90;1.00